Saint Francis, Maine
Current Conditions -  °F | °C
As of 8:53 PM on Monday 24 Nov 2014 (Local Time) from KFVE Reporting Station
Moderate Fog Moderate Fog  
Wind Chill: 51°   Ceiling: 200
Heat Index: 51°   Visibility: 0.25mi
Dew Point: 50°   Wind: 13mph
Humidity: 96%   Direction: 180°S
Pressure: 29.36"   Gusts: 21mph
Location:  47.17°N, 68.89°W
Report Text: KFVE 250153Z AUTO 18011G18KT 1/4SM FG VV002 11/10 A2936 RMK AO2 SLP946 T01060100
Loading
Personal Weather Stations






























Interactive Weather Map New forecast layout! Learn more

10-Day Weather Forecast

Advertisements
Track Severe Weather on mobile